Terminal Aerodrome Forecast
Issued by NWS

Home | Current Version | Previous Version | Text Only | Print | Product List | Glossary On
Versions: 1 2 3 4 5 6 7 8 9 10 11 12 13 14
000
FTUS46 KLOX 200500
TAFVNY
TAF
KVNY 200527Z 2006/2106 VRB03KT P6SM OVC018
     FM200800 VRB03KT P6SM OVC022
     FM201900 15008KT P6SM SCT035
     FM210300 VRB03KT P6SM SCT050=

USA.gov is the U.S. government's official web portal to all federal, state and local government web resources and services.